sensor_id;sensor_type;location;lat;lon;timestamp;P1;durP1;ratioP1;P2;durP2;ratioP2
1344;SDS011;15375;48.540;9.268;2023-11-21T00:01:39;4.33;;;2.37;;
1344;SDS011;15375;48.540;9.268;2023-11-21T00:04:05;4.50;;;3.10;;
1344;SDS011;15375;48.540;9.268;2023-11-21T00:06:32;4.97;;;3.00;;
1344;SDS011;15375;48.540;9.268;2023-11-21T00:08:57;5.27;;;2.30;;
1344;SDS011;15375;48.540;9.268;2023-11-21T00:11:23;5.10;;;2.33;;
1344;SDS011;15375;48.540;9.268;2023-11-21T00:13:50;5.67;;;2.23;;
1344;SDS011;15375;48.540;9.268;2023-11-21T00:16:15;3.57;;;2.43;;
1344;SDS011;15375;48.540;9.268;2023-11-21T00:18:41;4.10;;;2.20;;
1344;SDS011;15375;48.540;9.268;2023-11-21T00:21:07;4.97;;;2.60;;
1344;SDS011;15375;48.540;9.268;2023-11-21T00:23:34;3.27;;;2.13;;
1344;SDS011;15375;48.540;9.268;2023-11-21T00:25:59;2.60;;;2.17;;
1344;SDS011;15375;48.540;9.268;2023-11-21T00:28:24;3.20;;;2.10;;
1344;SDS011;15375;48.540;9.268;2023-11-21T00:30:50;5.40;;;2.37;;
1344;SDS011;15375;48.540;9.268;2023-11-21T00:33:15;3.37;;;1.70;;
1344;SDS011;15375;48.540;9.268;2023-11-21T00:35:40;2.00;;;1.50;;
1344;SDS011;15375;48.540;9.268;2023-11-21T00:38:06;6.83;;;1.50;;
1344;SDS011;15375;48.540;9.268;2023-11-21T00:40:33;5.40;;;1.50;;
1344;SDS011;15375;48.540;9.268;2023-11-21T00:42:58;3.40;;;1.50;;
1344;SDS011;15375;48.540;9.268;2023-11-21T00:45:24;4.47;;;2.20;;
1344;SDS011;15375;48.540;9.268;2023-11-21T00:47:49;4.13;;;1.87;;
1344;SDS011;15375;48.540;9.268;2023-11-21T00:50:15;3.23;;;1.93;;
1344;SDS011;15375;48.540;9.268;2023-11-21T00:52:40;4.87;;;1.80;;
1344;SDS011;15375;48.540;9.268;2023-11-21T00:55:06;3.33;;;1.80;;
1344;SDS011;15375;48.540;9.268;2023-11-21T00:57:33;2.47;;;2.20;;
1344;SDS011;15375;48.540;9.268;2023-11-21T00:59:58;3.10;;;1.80;;
1344;SDS011;15375;48.540;9.268;2023-11-21T01:02:24;2.43;;;1.40;;
1344;SDS011;15375;48.540;9.268;2023-11-21T01:04:50;5.80;;;2.00;;
1344;SDS011;15375;48.540;9.268;2023-11-21T01:07:16;5.73;;;1.70;;
1344;SDS011;15375;48.540;9.268;2023-11-21T01:09:42;1.70;;;1.60;;
1344;SDS011;15375;48.540;9.268;2023-11-21T01:12:09;1.90;;;1.63;;
1344;SDS011;15375;48.540;9.268;2023-11-21T01:14:34;2.00;;;1.63;;
1344;SDS011;15375;48.540;9.268;2023-11-21T01:17:00;3.47;;;1.77;;
1344;SDS011;15375;48.540;9.268;2023-11-21T01:19:25;3.53;;;1.67;;
1344;SDS011;15375;48.540;9.268;2023-11-21T01:21:51;3.80;;;1.43;;
1344;SDS011;15375;48.540;9.268;2023-11-21T01:24:17;3.83;;;1.37;;
1344;SDS011;15375;48.540;9.268;2023-11-21T01:26:43;2.10;;;0.90;;
1344;SDS011;15375;48.540;9.268;2023-11-21T01:29:10;3.60;;;1.33;;
1344;SDS011;15375;48.540;9.268;2023-11-21T01:31:35;2.10;;;1.10;;
1344;SDS011;15375;48.540;9.268;2023-11-21T01:34:01;1.53;;;0.83;;
1344;SDS011;15375;48.540;9.268;2023-11-21T01:36:30;3.90;;;1.63;;
1344;SDS011;15375;48.540;9.268;2023-11-21T01:38:59;2.40;;;1.40;;
1344;SDS011;15375;48.540;9.268;2023-11-21T01:41:28;1.77;;;1.20;;
1344;SDS011;15375;48.540;9.268;2023-11-21T01:43:53;0.90;;;0.77;;
1344;SDS011;15375;48.540;9.268;2023-11-21T01:46:20;1.90;;;1.33;;
1344;SDS011;15375;48.540;9.268;2023-11-21T01:48:47;1.73;;;0.80;;
1344;SDS011;15375;48.540;9.268;2023-11-21T01:51:13;2.40;;;0.60;;
1344;SDS011;15375;48.540;9.268;2023-11-21T01:53:40;1.80;;;0.90;;
1344;SDS011;15375;48.540;9.268;2023-11-21T01:56:05;1.90;;;1.07;;
1344;SDS011;15375;48.540;9.268;2023-11-21T01:58:33;0.90;;;0.57;;
1344;SDS011;15375;48.540;9.268;2023-11-21T02:00:58;0.90;;;0.70;;
1344;SDS011;15375;48.540;9.268;2023-11-21T02:03:24;3.23;;;0.80;;
1344;SDS011;15375;48.540;9.268;2023-11-21T02:05:51;2.33;;;0.67;;
1344;SDS011;15375;48.540;9.268;2023-11-21T02:08:19;1.10;;;0.80;;
1344;SDS011;15375;48.540;9.268;2023-11-21T02:10:45;1.70;;;0.73;;
1344;SDS011;15375;48.540;9.268;2023-11-21T02:13:11;0.60;;;0.50;;
1344;SDS011;15375;48.540;9.268;2023-11-21T02:15:36;1.37;;;0.50;;
1344;SDS011;15375;48.540;9.268;2023-11-21T02:18:03;1.83;;;0.90;;
1344;SDS011;15375;48.540;9.268;2023-11-21T02:20:31;1.10;;;0.60;;
1344;SDS011;15375;48.540;9.268;2023-11-21T02:22:59;0.67;;;0.50;;
1344;SDS011;15375;48.540;9.268;2023-11-21T02:27:50;2.10;;;0.70;;
1344;SDS011;15375;48.540;9.268;2023-11-21T02:30:16;1.30;;;0.80;;
1344;SDS011;15375;48.540;9.268;2023-11-21T02:32:42;0.63;;;0.50;;
1344;SDS011;15375;48.540;9.268;2023-11-21T02:35:08;1.37;;;0.77;;
1344;SDS011;15375;48.540;9.268;2023-11-21T02:37:34;1.90;;;0.73;;
1344;SDS011;15375;48.540;9.268;2023-11-21T02:40:00;1.33;;;0.83;;
1344;SDS011;15375;48.540;9.268;2023-11-21T02:42:28;1.50;;;0.70;;
1344;SDS011;15375;48.540;9.268;2023-11-21T02:44:54;1.60;;;0.77;;
1344;SDS011;15375;48.540;9.268;2023-11-21T02:47:19;2.20;;;0.70;;
1344;SDS011;15375;48.540;9.268;2023-11-21T02:49:45;1.13;;;0.70;;
1344;SDS011;15375;48.540;9.268;2023-11-21T02:52:10;1.37;;;0.50;;
1344;SDS011;15375;48.540;9.268;2023-11-21T02:54:35;0.57;;;0.40;;
1344;SDS011;15375;48.540;9.268;2023-11-21T02:57:01;0.93;;;0.50;;
1344;SDS011;15375;48.540;9.268;2023-11-21T02:59:27;0.67;;;0.50;;
1344;SDS011;15375;48.540;9.268;2023-11-21T03:01:52;0.40;;;0.30;;
1344;SDS011;15375;48.540;9.268;2023-11-21T03:04:18;0.60;;;0.50;;
1344;SDS011;15375;48.540;9.268;2023-11-21T03:06:44;0.60;;;0.47;;
1344;SDS011;15375;48.540;9.268;2023-11-21T03:09:10;1.20;;;0.50;;
1344;SDS011;15375;48.540;9.268;2023-11-21T03:11:39;0.60;;;0.50;;
1344;SDS011;15375;48.540;9.268;2023-11-21T03:14:04;1.80;;;0.53;;
1344;SDS011;15375;48.540;9.268;2023-11-21T03:16:31;0.67;;;0.57;;
1344;SDS011;15375;48.540;9.268;2023-11-21T03:18:57;0.67;;;0.57;;
1344;SDS011;15375;48.540;9.268;2023-11-21T03:21:22;0.60;;;0.60;;
1344;SDS011;15375;48.540;9.268;2023-11-21T03:23:48;2.43;;;0.53;;
1344;SDS011;15375;48.540;9.268;2023-11-21T03:26:13;0.97;;;0.60;;
1344;SDS011;15375;48.540;9.268;2023-11-21T03:28:39;0.93;;;0.80;;
1344;SDS011;15375;48.540;9.268;2023-11-21T03:31:04;2.13;;;0.60;;
1344;SDS011;15375;48.540;9.268;2023-11-21T03:33:31;1.47;;;0.43;;
1344;SDS011;15375;48.540;9.268;2023-11-21T03:35:57;0.80;;;0.57;;
1344;SDS011;15375;48.540;9.268;2023-11-21T03:38:23;1.43;;;0.40;;
1344;SDS011;15375;48.540;9.268;2023-11-21T03:40:48;1.37;;;0.60;;
1344;SDS011;15375;48.540;9.268;2023-11-21T03:43:14;1.07;;;0.50;;
1344;SDS011;15375;48.540;9.268;2023-11-21T03:45:39;0.50;;;0.47;;
1344;SDS011;15375;48.540;9.268;2023-11-21T03:48:06;2.47;;;0.53;;
1344;SDS011;15375;48.540;9.268;2023-11-21T03:50:31;0.30;;;0.30;;
1344;SDS011;15375;48.540;9.268;2023-11-21T03:52:57;1.27;;;0.50;;
1344;SDS011;15375;48.540;9.268;2023-11-21T03:55:22;0.30;;;0.27;;
1344;SDS011;15375;48.540;9.268;2023-11-21T03:57:49;0.40;;;0.30;;
1344;SDS011;15375;48.540;9.268;2023-11-21T04:00:16;0.80;;;0.50;;
1344;SDS011;15375;48.540;9.268;2023-11-21T04:02:42;0.53;;;0.50;;
1344;SDS011;15375;48.540;9.268;2023-11-21T04:05:07;0.40;;;0.40;;
1344;SDS011;15375;48.540;9.268;2023-11-21T04:07:34;1.57;;;0.80;;
1344;SDS011;15375;48.540;9.268;2023-11-21T04:09:59;1.57;;;0.40;;
1344;SDS011;15375;48.540;9.268;2023-11-21T04:12:25;1.33;;;0.57;;
1344;SDS011;15375;48.540;9.268;2023-11-21T04:14:50;0.50;;;0.40;;
1344;SDS011;15375;48.540;9.268;2023-11-21T04:17:18;0.40;;;0.37;;
1344;SDS011;15375;48.540;9.268;2023-11-21T04:19:44;0.50;;;0.40;;
1344;SDS011;15375;48.540;9.268;2023-11-21T04:22:11;0.60;;;0.60;;
1344;SDS011;15375;48.540;9.268;2023-11-21T04:24:36;1.33;;;0.80;;
1344;SDS011;15375;48.540;9.268;2023-11-21T04:27:02;1.40;;;0.40;;
1344;SDS011;15375;48.540;9.268;2023-11-21T04:29:28;1.30;;;0.50;;
1344;SDS011;15375;48.540;9.268;2023-11-21T04:31:53;1.83;;;0.50;;
1344;SDS011;15375;48.540;9.268;2023-11-21T04:34:19;0.67;;;0.40;;
1344;SDS011;15375;48.540;9.268;2023-11-21T04:36:44;2.13;;;0.50;;
1344;SDS011;15375;48.540;9.268;2023-11-21T04:39:09;1.33;;;0.60;;
1344;SDS011;15375;48.540;9.268;2023-11-21T04:41:35;0.60;;;0.60;;
1344;SDS011;15375;48.540;9.268;2023-11-21T04:44:01;0.50;;;0.40;;
1344;SDS011;15375;48.540;9.268;2023-11-21T04:46:26;0.70;;;0.60;;
1344;SDS011;15375;48.540;9.268;2023-11-21T04:48:52;1.03;;;0.80;;
1344;SDS011;15375;48.540;9.268;2023-11-21T04:51:17;0.43;;;0.40;;
1344;SDS011;15375;48.540;9.268;2023-11-21T04:53:42;2.93;;;0.70;;
1344;SDS011;15375;48.540;9.268;2023-11-21T04:56:08;0.40;;;0.40;;
1344;SDS011;15375;48.540;9.268;2023-11-21T04:58:33;0.60;;;0.53;;
1344;SDS011;15375;48.540;9.268;2023-11-21T05:01:00;0.40;;;0.40;;
1344;SDS011;15375;48.540;9.268;2023-11-21T05:03:25;1.07;;;0.50;;
1344;SDS011;15375;48.540;9.268;2023-11-21T05:05:51;0.80;;;0.60;;
1344;SDS011;15375;48.540;9.268;2023-11-21T05:08:16;0.90;;;0.60;;
1344;SDS011;15375;48.540;9.268;2023-11-21T05:10:42;0.70;;;0.50;;
1344;SDS011;15375;48.540;9.268;2023-11-21T05:13:07;2.30;;;0.50;;
1344;SDS011;15375;48.540;9.268;2023-11-21T05:15:35;0.73;;;0.50;;
1344;SDS011;15375;48.540;9.268;2023-11-21T05:18:02;1.77;;;0.60;;
1344;SDS011;15375;48.540;9.268;2023-11-21T05:20:28;0.80;;;0.53;;
1344;SDS011;15375;48.540;9.268;2023-11-21T05:22:53;0.83;;;0.43;;
1344;SDS011;15375;48.540;9.268;2023-11-21T05:25:18;0.83;;;0.63;;
1344;SDS011;15375;48.540;9.268;2023-11-21T05:27:45;0.70;;;0.50;;
1344;SDS011;15375;48.540;9.268;2023-11-21T05:30:11;1.47;;;0.73;;
1344;SDS011;15375;48.540;9.268;2023-11-21T05:32:36;0.77;;;0.63;;
1344;SDS011;15375;48.540;9.268;2023-11-21T05:35:02;1.20;;;0.80;;
1344;SDS011;15375;48.540;9.268;2023-11-21T05:37:27;1.80;;;0.50;;
1344;SDS011;15375;48.540;9.268;2023-11-21T05:39:53;0.83;;;0.40;;
1344;SDS011;15375;48.540;9.268;2023-11-21T05:42:21;0.40;;;0.30;;
1344;SDS011;15375;48.540;9.268;2023-11-21T05:44:48;0.67;;;0.50;;
1344;SDS011;15375;48.540;9.268;2023-11-21T05:47:13;1.90;;;0.50;;
1344;SDS011;15375;48.540;9.268;2023-11-21T05:49:39;0.87;;;0.80;;
1344;SDS011;15375;48.540;9.268;2023-11-21T05:52:04;0.50;;;0.50;;
1344;SDS011;15375;48.540;9.268;2023-11-21T05:54:30;0.97;;;0.40;;
1344;SDS011;15375;48.540;9.268;2023-11-21T05:56:55;4.67;;;1.20;;
1344;SDS011;15375;48.540;9.268;2023-11-21T05:59:21;1.07;;;0.97;;
1344;SDS011;15375;48.540;9.268;2023-11-21T06:01:46;2.63;;;0.73;;
1344;SDS011;15375;48.540;9.268;2023-11-21T06:04:12;2.00;;;0.80;;
1344;SDS011;15375;48.540;9.268;2023-11-21T06:06:38;1.57;;;0.60;;
1344;SDS011;15375;48.540;9.268;2023-11-21T06:09:03;4.67;;;1.00;;
1344;SDS011;15375;48.540;9.268;2023-11-21T06:11:30;1.27;;;0.70;;
1344;SDS011;15375;48.540;9.268;2023-11-21T06:13:56;1.40;;;0.70;;
1344;SDS011;15375;48.540;9.268;2023-11-21T06:16:21;1.00;;;0.83;;
1344;SDS011;15375;48.540;9.268;2023-11-21T06:18:47;0.90;;;0.80;;
1344;SDS011;15375;48.540;9.268;2023-11-21T06:21:12;1.43;;;1.10;;
1344;SDS011;15375;48.540;9.268;2023-11-21T06:23:38;2.87;;;1.13;;
1344;SDS011;15375;48.540;9.268;2023-11-21T06:26:04;1.43;;;1.00;;
1344;SDS011;15375;48.540;9.268;2023-11-21T06:28:30;1.07;;;0.90;;
1344;SDS011;15375;48.540;9.268;2023-11-21T06:30:55;2.10;;;1.10;;
1344;SDS011;15375;48.540;9.268;2023-11-21T06:33:23;2.77;;;1.93;;
1344;SDS011;15375;48.540;9.268;2023-11-21T06:35:49;2.87;;;2.00;;
1344;SDS011;15375;48.540;9.268;2023-11-21T06:38:14;5.13;;;3.10;;
1344;SDS011;15375;48.540;9.268;2023-11-21T06:40:40;3.80;;;2.70;;
1344;SDS011;15375;48.540;9.268;2023-11-21T06:43:06;5.87;;;3.00;;
1344;SDS011;15375;48.540;9.268;2023-11-21T06:45:32;10.60;;;3.37;;
1344;SDS011;15375;48.540;9.268;2023-11-21T06:47:59;3.93;;;2.57;;
1344;SDS011;15375;48.540;9.268;2023-11-21T06:50:24;2.17;;;1.63;;
1344;SDS011;15375;48.540;9.268;2023-11-21T06:52:49;3.03;;;1.80;;
1344;SDS011;15375;48.540;9.268;2023-11-21T06:55:15;3.13;;;2.23;;
1344;SDS011;15375;48.540;9.268;2023-11-21T06:57:41;5.57;;;3.30;;
1344;SDS011;15375;48.540;9.268;2023-11-21T07:00:06;3.43;;;2.20;;
1344;SDS011;15375;48.540;9.268;2023-11-21T07:02:34;2.83;;;2.50;;
1344;SDS011;15375;48.540;9.268;2023-11-21T07:04:59;3.97;;;2.83;;
1344;SDS011;15375;48.540;9.268;2023-11-21T07:07:25;2.80;;;2.00;;
1344;SDS011;15375;48.540;9.268;2023-11-21T07:09:50;2.60;;;2.10;;
1344;SDS011;15375;48.540;9.268;2023-11-21T07:12:17;2.10;;;1.90;;
1344;SDS011;15375;48.540;9.268;2023-11-21T07:14:42;2.00;;;1.67;;
1344;SDS011;15375;48.540;9.268;2023-11-21T07:17:10;4.20;;;2.30;;
1344;SDS011;15375;48.540;9.268;2023-11-21T07:19:37;3.00;;;1.97;;
1344;SDS011;15375;48.540;9.268;2023-11-21T07:22:03;5.10;;;1.93;;
1344;SDS011;15375;48.540;9.268;2023-11-21T07:24:28;2.93;;;1.60;;
1344;SDS011;15375;48.540;9.268;2023-11-21T07:26:53;1.80;;;1.60;;
1344;SDS011;15375;48.540;9.268;2023-11-21T07:29:21;1.43;;;1.00;;
1344;SDS011;15375;48.540;9.268;2023-11-21T07:31:48;2.83;;;1.67;;
1344;SDS011;15375;48.540;9.268;2023-11-21T07:34:13;2.83;;;1.90;;
1344;SDS011;15375;48.540;9.268;2023-11-21T07:36:38;1.10;;;1.00;;
1344;SDS011;15375;48.540;9.268;2023-11-21T07:39:04;2.33;;;1.43;;
1344;SDS011;15375;48.540;9.268;2023-11-21T07:41:31;2.17;;;1.63;;
1344;SDS011;15375;48.540;9.268;2023-11-21T07:44:00;1.63;;;1.13;;
1344;SDS011;15375;48.540;9.268;2023-11-21T07:46:26;4.73;;;1.20;;
1344;SDS011;15375;48.540;9.268;2023-11-21T07:48:52;0.60;;;0.60;;
1344;SDS011;15375;48.540;9.268;2023-11-21T07:51:18;0.77;;;0.77;;
1344;SDS011;15375;48.540;9.268;2023-11-21T07:53:43;1.80;;;0.67;;
1344;SDS011;15375;48.540;9.268;2023-11-21T07:56:09;1.67;;;1.27;;
1344;SDS011;15375;48.540;9.268;2023-11-21T07:58:35;1.33;;;0.90;;
1344;SDS011;15375;48.540;9.268;2023-11-21T08:01:01;1.67;;;0.93;;
1344;SDS011;15375;48.540;9.268;2023-11-21T08:03:30;1.60;;;1.00;;
1344;SDS011;15375;48.540;9.268;2023-11-21T08:05:59;0.70;;;0.70;;
1344;SDS011;15375;48.540;9.268;2023-11-21T08:08:24;1.63;;;1.00;;
1344;SDS011;15375;48.540;9.268;2023-11-21T08:10:50;3.23;;;1.53;;
1344;SDS011;15375;48.540;9.268;2023-11-21T08:13:23;1.83;;;1.43;;
1344;SDS011;15375;48.540;9.268;2023-11-21T08:15:49;2.40;;;0.90;;
1344;SDS011;15375;48.540;9.268;2023-11-21T08:18:15;0.90;;;0.90;;
1344;SDS011;15375;48.540;9.268;2023-11-21T08:20:42;2.47;;;1.30;;
1344;SDS011;15375;48.540;9.268;2023-11-21T08:23:07;3.63;;;0.93;;
1344;SDS011;15375;48.540;9.268;2023-11-21T08:25:33;1.30;;;1.20;;
1344;SDS011;15375;48.540;9.268;2023-11-21T08:27:59;1.20;;;0.93;;
1344;SDS011;15375;48.540;9.268;2023-11-21T08:30:25;2.70;;;1.07;;
1344;SDS011;15375;48.540;9.268;2023-11-21T08:32:52;1.37;;;0.90;;
1344;SDS011;15375;48.540;9.268;2023-11-21T08:35:18;1.17;;;0.80;;
1344;SDS011;15375;48.540;9.268;2023-11-21T08:37:44;1.20;;;1.10;;
1344;SDS011;15375;48.540;9.268;2023-11-21T08:40:10;1.00;;;0.90;;
1344;SDS011;15375;48.540;9.268;2023-11-21T08:42:37;1.80;;;1.00;;
1344;SDS011;15375;48.540;9.268;2023-11-21T08:45:03;1.20;;;1.03;;
1344;SDS011;15375;48.540;9.268;2023-11-21T08:47:29;1.37;;;1.03;;
1344;SDS011;15375;48.540;9.268;2023-11-21T08:49:54;1.40;;;1.30;;
1344;SDS011;15375;48.540;9.268;2023-11-21T08:52:20;1.53;;;1.30;;
1344;SDS011;15375;48.540;9.268;2023-11-21T08:54:51;1.63;;;1.53;;
1344;SDS011;15375;48.540;9.268;2023-11-21T08:57:21;2.50;;;0.97;;
1344;SDS011;15375;48.540;9.268;2023-11-21T08:59:47;2.40;;;1.03;;
1344;SDS011;15375;48.540;9.268;2023-11-21T09:02:13;0.60;;;0.50;;
1344;SDS011;15375;48.540;9.268;2023-11-21T09:04:38;4.97;;;1.00;;
1344;SDS011;15375;48.540;9.268;2023-11-21T09:07:03;3.60;;;1.00;;
1344;SDS011;15375;48.540;9.268;2023-11-21T09:09:29;0.57;;;0.57;;
1344;SDS011;15375;48.540;9.268;2023-11-21T09:11:55;1.03;;;0.80;;
1344;SDS011;15375;48.540;9.268;2023-11-21T09:14:20;1.20;;;0.80;;
1344;SDS011;15375;48.540;9.268;2023-11-21T09:16:45;1.03;;;0.93;;
1344;SDS011;15375;48.540;9.268;2023-11-21T09:19:12;1.27;;;0.90;;
1344;SDS011;15375;48.540;9.268;2023-11-21T09:21:39;2.83;;;1.30;;
1344;SDS011;15375;48.540;9.268;2023-11-21T09:24:05;1.87;;;1.30;;
1344;SDS011;15375;48.540;9.268;2023-11-21T09:26:30;4.67;;;1.23;;
1344;SDS011;15375;48.540;9.268;2023-11-21T09:28:56;1.17;;;0.80;;
1344;SDS011;15375;48.540;9.268;2023-11-21T09:31:21;1.17;;;1.10;;
1344;SDS011;15375;48.540;9.268;2023-11-21T09:33:48;1.57;;;0.93;;
1344;SDS011;15375;48.540;9.268;2023-11-21T09:36:14;1.03;;;0.93;;
1344;SDS011;15375;48.540;9.268;2023-11-21T09:38:40;1.67;;;1.07;;
1344;SDS011;15375;48.540;9.268;2023-11-21T09:41:21;2.10;;;1.60;;
1344;SDS011;15375;48.540;9.268;2023-11-21T09:43:56;2.40;;;1.13;;
1344;SDS011;15375;48.540;9.268;2023-11-21T09:46:25;1.30;;;1.10;;
1344;SDS011;15375;48.540;9.268;2023-11-21T09:48:53;1.03;;;0.93;;
1344;SDS011;15375;48.540;9.268;2023-11-21T09:51:21;2.30;;;1.20;;
1344;SDS011;15375;48.540;9.268;2023-11-21T09:53:54;1.67;;;1.50;;
1344;SDS011;15375;48.540;9.268;2023-11-21T09:56:24;2.23;;;1.10;;
1344;SDS011;15375;48.540;9.268;2023-11-21T09:58:52;5.10;;;1.40;;
1344;SDS011;15375;48.540;9.268;2023-11-21T10:01:18;1.80;;;0.97;;
1344;SDS011;15375;48.540;9.268;2023-11-21T10:03:45;1.47;;;1.00;;
1344;SDS011;15375;48.540;9.268;2023-11-21T10:06:12;1.13;;;0.90;;
1344;SDS011;15375;48.540;9.268;2023-11-21T10:08:39;1.80;;;1.40;;
1344;SDS011;15375;48.540;9.268;2023-11-21T10:11:06;1.13;;;0.97;;
1344;SDS011;15375;48.540;9.268;2023-11-21T10:13:36;1.07;;;1.07;;
1344;SDS011;15375;48.540;9.268;2023-11-21T10:16:02;0.83;;;0.83;;
1344;SDS011;15375;48.540;9.268;2023-11-21T10:18:31;2.30;;;1.10;;
1344;SDS011;15375;48.540;9.268;2023-11-21T10:20:59;1.60;;;1.23;;
1344;SDS011;15375;48.540;9.268;2023-11-21T10:23:24;1.43;;;1.10;;
1344;SDS011;15375;48.540;9.268;2023-11-21T10:25:53;1.93;;;1.07;;
1344;SDS011;15375;48.540;9.268;2023-11-21T10:28:20;1.33;;;1.10;;
1344;SDS011;15375;48.540;9.268;2023-11-21T10:30:45;1.90;;;0.63;;
1344;SDS011;15375;48.540;9.268;2023-11-21T10:33:11;1.77;;;0.73;;
1344;SDS011;15375;48.540;9.268;2023-11-21T10:35:47;0.90;;;0.90;;
1344;SDS011;15375;48.540;9.268;2023-11-21T10:38:16;1.30;;;1.00;;
1344;SDS011;15375;48.540;9.268;2023-11-21T10:40:42;2.10;;;1.20;;
1344;SDS011;15375;48.540;9.268;2023-11-21T10:43:09;1.90;;;0.70;;
1344;SDS011;15375;48.540;9.268;2023-11-21T10:45:38;3.17;;;1.10;;
1344;SDS011;15375;48.540;9.268;2023-11-21T10:48:05;1.17;;;0.70;;
1344;SDS011;15375;48.540;9.268;2023-11-21T10:50:33;1.87;;;1.30;;
1344;SDS011;15375;48.540;9.268;2023-11-21T10:53:01;0.73;;;0.73;;
1344;SDS011;15375;48.540;9.268;2023-11-21T10:55:27;0.80;;;0.70;;
1344;SDS011;15375;48.540;9.268;2023-11-21T10:57:53;0.87;;;0.73;;
1344;SDS011;15375;48.540;9.268;2023-11-21T11:00:19;2.10;;;1.00;;
1344;SDS011;15375;48.540;9.268;2023-11-21T11:02:50;1.43;;;1.13;;
1344;SDS011;15375;48.540;9.268;2023-11-21T11:05:19;4.43;;;1.80;;
1344;SDS011;15375;48.540;9.268;2023-11-21T11:07:45;1.63;;;1.23;;
1344;SDS011;15375;48.540;9.268;2023-11-21T11:10:19;1.00;;;0.77;;
1344;SDS011;15375;48.540;9.268;2023-11-21T11:12:47;1.40;;;1.17;;
1344;SDS011;15375;48.540;9.268;2023-11-21T11:15:13;1.20;;;1.10;;
1344;SDS011;15375;48.540;9.268;2023-11-21T11:17:41;1.63;;;1.17;;
1344;SDS011;15375;48.540;9.268;2023-11-21T11:20:08;1.30;;;1.13;;
1344;SDS011;15375;48.540;9.268;2023-11-21T11:22:46;1.80;;;1.37;;
1344;SDS011;15375;48.540;9.268;2023-11-21T11:33:12;1.40;;;1.30;;
1344;SDS011;15375;48.540;9.268;2023-11-21T11:38:16;1.13;;;1.00;;
1344;SDS011;15375;48.540;9.268;2023-11-21T11:40:45;1.00;;;0.90;;
1344;SDS011;15375;48.540;9.268;2023-11-21T11:43:11;1.63;;;1.13;;
1344;SDS011;15375;48.540;9.268;2023-11-21T11:45:37;1.67;;;1.00;;
1344;SDS011;15375;48.540;9.268;2023-11-21T11:48:06;1.83;;;1.13;;
1344;SDS011;15375;48.540;9.268;2023-11-21T11:50:32;1.53;;;1.40;;
1344;SDS011;15375;48.540;9.268;2023-11-21T11:53:17;1.20;;;1.10;;
1344;SDS011;15375;48.540;9.268;2023-11-21T11:55:44;1.50;;;1.30;;
1344;SDS011;15375;48.540;9.268;2023-11-21T11:58:10;1.97;;;1.30;;
1344;SDS011;15375;48.540;9.268;2023-11-21T12:00:36;1.40;;;1.30;;
1344;SDS011;15375;48.540;9.268;2023-11-21T12:03:06;1.27;;;0.97;;
1344;SDS011;15375;48.540;9.268;2023-11-21T12:05:34;1.07;;;1.07;;
1344;SDS011;15375;48.540;9.268;2023-11-21T12:08:03;3.43;;;1.13;;
1344;SDS011;15375;48.540;9.268;2023-11-21T12:10:32;2.53;;;1.30;;
1344;SDS011;15375;48.540;9.268;2023-11-21T12:13:08;1.57;;;1.30;;
1344;SDS011;15375;48.540;9.268;2023-11-21T12:15:37;1.33;;;1.23;;
1344;SDS011;15375;48.540;9.268;2023-11-21T12:18:03;1.10;;;1.00;;
1344;SDS011;15375;48.540;9.268;2023-11-21T12:20:29;1.57;;;1.20;;
1344;SDS011;15375;48.540;9.268;2023-11-21T12:22:56;3.30;;;1.13;;
1344;SDS011;15375;48.540;9.268;2023-11-21T12:25:27;1.20;;;1.03;;
1344;SDS011;15375;48.540;9.268;2023-11-21T12:28:01;1.67;;;0.90;;
1344;SDS011;15375;48.540;9.268;2023-11-21T12:30:31;1.60;;;1.20;;
1344;SDS011;15375;48.540;9.268;2023-11-21T12:33:00;1.67;;;1.00;;
1344;SDS011;15375;48.540;9.268;2023-11-21T12:35:30;1.43;;;1.23;;
1344;SDS011;15375;48.540;9.268;2023-11-21T12:38:00;1.83;;;1.03;;
1344;SDS011;15375;48.540;9.268;2023-11-21T12:40:30;1.20;;;1.10;;
1344;SDS011;15375;48.540;9.268;2023-11-21T12:42:56;3.10;;;1.10;;
1344;SDS011;15375;48.540;9.268;2023-11-21T12:45:24;1.10;;;1.00;;
1344;SDS011;15375;48.540;9.268;2023-11-21T12:50:29;0.90;;;0.90;;
1344;SDS011;15375;48.540;9.268;2023-11-21T12:52:59;1.23;;;1.10;;
1344;SDS011;15375;48.540;9.268;2023-11-21T12:55:29;1.63;;;0.97;;
1344;SDS011;15375;48.540;9.268;2023-11-21T12:58:02;1.30;;;1.20;;
1344;SDS011;15375;48.540;9.268;2023-11-21T13:03:04;4.10;;;1.50;;
1344;SDS011;15375;48.540;9.268;2023-11-21T13:05:35;0.97;;;0.90;;
1344;SDS011;15375;48.540;9.268;2023-11-21T13:08:09;1.57;;;1.47;;
1344;SDS011;15375;48.540;9.268;2023-11-21T13:10:38;3.23;;;1.60;;
1344;SDS011;15375;48.540;9.268;2023-11-21T13:13:06;1.73;;;1.40;;
1344;SDS011;15375;48.540;9.268;2023-11-21T13:15:46;2.00;;;1.43;;
1344;SDS011;15375;48.540;9.268;2023-11-21T13:18:25;4.40;;;1.50;;
1344;SDS011;15375;48.540;9.268;2023-11-21T13:20:56;2.33;;;1.60;;
1344;SDS011;15375;48.540;9.268;2023-11-21T13:23:28;2.40;;;1.53;;
1344;SDS011;15375;48.540;9.268;2023-11-21T13:25:54;1.73;;;1.63;;
1344;SDS011;15375;48.540;9.268;2023-11-21T13:28:20;3.63;;;1.83;;
1344;SDS011;15375;48.540;9.268;2023-11-21T13:30:49;2.03;;;1.67;;
1344;SDS011;15375;48.540;9.268;2023-11-21T13:33:17;1.40;;;1.30;;
1344;SDS011;15375;48.540;9.268;2023-11-21T13:35:46;2.83;;;1.57;;
1344;SDS011;15375;48.540;9.268;2023-11-21T13:38:14;1.80;;;1.70;;
1344;SDS011;15375;48.540;9.268;2023-11-21T13:40:50;1.60;;;1.50;;
1344;SDS011;15375;48.540;9.268;2023-11-21T13:43:19;2.50;;;2.20;;
1344;SDS011;15375;48.540;9.268;2023-11-21T13:45:47;3.33;;;1.87;;
1344;SDS011;15375;48.540;9.268;2023-11-21T13:48:15;5.83;;;2.97;;
1344;SDS011;15375;48.540;9.268;2023-11-21T13:50:44;1.17;;;1.00;;
1344;SDS011;15375;48.540;9.268;2023-11-21T13:53:20;3.40;;;2.20;;
1344;SDS011;15375;48.540;9.268;2023-11-21T13:55:51;2.20;;;2.10;;
1344;SDS011;15375;48.540;9.268;2023-11-21T13:58:22;2.70;;;1.90;;
1344;SDS011;15375;48.540;9.268;2023-11-21T14:00:57;1.53;;;1.43;;
1344;SDS011;15375;48.540;9.268;2023-11-21T14:03:23;1.87;;;1.77;;
1344;SDS011;15375;48.540;9.268;2023-11-21T14:05:57;1.40;;;1.30;;
1344;SDS011;15375;48.540;9.268;2023-11-21T14:08:23;1.60;;;1.50;;
1344;SDS011;15375;48.540;9.268;2023-11-21T14:10:53;1.83;;;1.73;;
1344;SDS011;15375;48.540;9.268;2023-11-21T14:13:24;3.70;;;1.60;;
1344;SDS011;15375;48.540;9.268;2023-11-21T14:15:50;1.47;;;1.37;;
1344;SDS011;15375;48.540;9.268;2023-11-21T14:18:19;2.00;;;1.80;;
1344;SDS011;15375;48.540;9.268;2023-11-21T14:20:52;3.00;;;1.60;;
1344;SDS011;15375;48.540;9.268;2023-11-21T14:23:17;2.70;;;2.50;;
1344;SDS011;15375;48.540;9.268;2023-11-21T14:25:43;2.43;;;1.87;;
1344;SDS011;15375;48.540;9.268;2023-11-21T14:28:08;2.93;;;1.97;;
1344;SDS011;15375;48.540;9.268;2023-11-21T14:30:36;3.00;;;2.10;;
1344;SDS011;15375;48.540;9.268;2023-11-21T14:33:03;1.63;;;1.53;;
1344;SDS011;15375;48.540;9.268;2023-11-21T14:35:29;2.03;;;1.87;;
1344;SDS011;15375;48.540;9.268;2023-11-21T14:37:57;1.70;;;1.60;;
1344;SDS011;15375;48.540;9.268;2023-11-21T14:40:24;5.13;;;4.70;;
1344;SDS011;15375;48.540;9.268;2023-11-21T14:42:50;9.07;;;7.80;;
1344;SDS011;15375;48.540;9.268;2023-11-21T14:45:18;2.10;;;1.90;;
1344;SDS011;15375;48.540;9.268;2023-11-21T14:47:45;3.67;;;2.20;;
1344;SDS011;15375;48.540;9.268;2023-11-21T14:50:20;2.07;;;1.70;;
1344;SDS011;15375;48.540;9.268;2023-11-21T14:53:06;1.67;;;1.57;;
1344;SDS011;15375;48.540;9.268;2023-11-21T14:55:33;1.60;;;1.50;;
1344;SDS011;15375;48.540;9.268;2023-11-21T14:58:17;1.90;;;1.50;;
1344;SDS011;15375;48.540;9.268;2023-11-21T15:00:55;1.77;;;1.67;;
1344;SDS011;15375;48.540;9.268;2023-11-21T15:03:25;2.20;;;2.00;;
1344;SDS011;15375;48.540;9.268;2023-11-21T15:06:12;1.70;;;1.60;;
1344;SDS011;15375;48.540;9.268;2023-11-21T15:08:50;2.60;;;1.87;;
1344;SDS011;15375;48.540;9.268;2023-11-21T15:11:42;4.13;;;3.80;;
1344;SDS011;15375;48.540;9.268;2023-11-21T15:14:08;2.60;;;2.27;;
1344;SDS011;15375;48.540;9.268;2023-11-21T15:16:37;2.40;;;2.20;;
1344;SDS011;15375;48.540;9.268;2023-11-21T15:19:05;3.60;;;3.30;;